KHKS/HKS METAR and TAF weather

Enter ICAO airport designator
Station Type Date Time Source
KHKS METAR 2020/11/27 14:11 UTC NOAA

KHKS 271411Z 15003KT 10SM OVC004 17/15 A3007 RMK AO2 LTG DSNT W AND NW T01720150


Station Type Date Time Source
KHKS Decoded METAR 2020/11/27 14:11 UTC NOAA

HAWKINS FIELD, MS, United States (KHKS) 32-20N 090-13W 108M
Nov 27, 2020 - 09:11 AM EST / 2020.11.27 1411 UTC
Wind: from the SSE (150 degrees) at 3 MPH (3 KT):0
Visibility: 10 mile(s):0
Sky conditions: overcast
Weather: Lightning observed
Temperature: 63.0 F (17.2 C)
Dew Point: 59.0 F (15.0 C)
Relative Humidity: 86%
Pressure (altimeter): 30.07 in. Hg (1018 hPa)
ob: KHKS 271411Z 15003KT 10SM OVC004 17/15 A3007 RMK AO2 LTG DSNT W AND NW T01720150
cycle: 14

Station Type Date Time Source
KHKS TAF 2020/11/27 12:40 UTC NOAA

TAF KHKS 271138Z 2712/2812 15004KT P6SM BKN012
FM271400 18004KT P6SM OVC007
FM271700 21004KT 6SM -RA OVC015
FM272000 20003KT P6SM VCTS OVC015CB
FM280000 15005KT 5SM -RA BR OVC007
FM280700 34004KT P6SM OVC007

Example: see airport list